createdAt,value
2019-03-20T00:02:10.037Z,100604.18
2019-03-20T00:04:36.611Z,100604.63
2019-03-20T00:07:03.194Z,100599.44
2019-03-20T00:09:29.767Z,100608.17
2019-03-20T00:11:56.341Z,100602.97
2019-03-20T00:14:22.924Z,100608.64
2019-03-20T00:16:49.498Z,100608.20
2019-03-20T00:19:16.083Z,100610.81
2019-03-20T00:21:42.662Z,100606.04
2019-03-20T00:24:09.239Z,100608.23
2019-03-20T00:26:35.815Z,100609.11
2019-03-20T00:29:02.394Z,100610.91
2019-03-20T00:31:28.978Z,100614.40
2019-03-20T00:33:55.544Z,100619.66
2019-03-20T00:36:22.127Z,100620.10
2019-03-20T00:38:48.710Z,100619.25
2019-03-20T00:41:15.393Z,100622.29
2019-03-20T00:43:41.970Z,100619.27
2019-03-20T00:46:08.552Z,100620.14
2019-03-20T00:48:35.125Z,100614.55
2019-03-20T00:51:01.721Z,100614.99
2019-03-20T00:53:28.296Z,100616.73
2019-03-20T00:55:54.897Z,100628.45
2019-03-20T00:58:21.476Z,100623.67
2019-03-20T01:00:48.087Z,100619.77
2019-03-20T01:03:14.663Z,100618.47
2019-03-20T01:05:41.262Z,100618.47
2019-03-20T01:08:07.835Z,100618.47
2019-03-20T01:10:34.500Z,100620.64
2019-03-20T01:13:01.110Z,100623.24
2019-03-20T01:15:27.677Z,100628.02
2019-03-20T01:17:54.249Z,100626.71
2019-03-20T01:20:20.820Z,100628.44
2019-03-20T01:22:47.516Z,100631.05
2019-03-20T01:25:14.102Z,100631.05
2019-03-20T01:27:40.709Z,100632.34
2019-03-20T01:30:07.337Z,100637.98
2019-03-20T01:32:33.988Z,100634.08
2019-03-20T01:35:00.583Z,100633.66
2019-03-20T01:37:27.183Z,100636.69
2019-03-20T01:39:53.777Z,100638.43
2019-03-20T01:42:20.408Z,100638.00
2019-03-20T01:44:46.986Z,100649.28
2019-03-20T01:47:13.599Z,100642.34
2019-03-20T01:49:40.179Z,100646.68
2019-03-20T01:52:06.849Z,100651.89
2019-03-20T01:54:33.549Z,100647.98
2019-03-20T01:57:00.157Z,100649.28
2019-03-20T01:59:26.732Z,100645.81
2019-03-20T02:01:53.344Z,100651.02
2019-03-20T02:04:19.922Z,100651.02
2019-03-20T02:06:46.537Z,100651.89
2019-03-20T02:09:13.123Z,100659.27
2019-03-20T02:11:39.711Z,100661.01
2019-03-20T02:14:06.292Z,100659.70
2019-03-20T02:16:32.909Z,100654.94
2019-03-20T02:18:59.492Z,100659.27
2019-03-20T02:21:26.079Z,100662.34
2019-03-20T02:23:52.665Z,100664.95
2019-03-20T02:26:19.261Z,100661.05
2019-03-20T02:28:45.914Z,100665.82
2019-03-20T02:31:12.540Z,100667.56
2019-03-20T02:33:39.190Z,100664.53
2019-03-20T02:36:05.805Z,100673.64
2019-03-20T02:38:32.390Z,100661.92
2019-03-20T02:40:58.945Z,100674.51
2019-03-20T02:43:25.510Z,100669.30
2019-03-20T02:45:52.092Z,100668.00
2019-03-20T02:48:18.668Z,100677.11
2019-03-20T02:50:45.245Z,100676.67
2019-03-20T02:53:11.817Z,100684.92
2019-03-20T02:55:38.424Z,100684.92
2019-03-20T02:58:05.073Z,100684.05
2019-03-20T03:00:31.702Z,100689.69
2019-03-20T03:02:58.281Z,100690.52
2019-03-20T03:05:24.857Z,100697.45
2019-03-20T03:07:51.430Z,100690.52
2019-03-20T03:10:18.031Z,100685.73
2019-03-20T03:12:44.672Z,100687.47
2019-03-20T03:15:11.246Z,100688.77
2019-03-20T03:17:37.867Z,100688.77
2019-03-20T03:20:04.517Z,100693.54
2019-03-20T03:22:31.119Z,100695.71
2019-03-20T03:24:57.693Z,100698.31
2019-03-20T03:27:24.304Z,100703.53
2019-03-20T03:29:50.866Z,100701.80
2019-03-20T03:32:17.578Z,100703.10
2019-03-20T03:34:44.159Z,100703.97
2019-03-20T03:37:10.743Z,100703.14
2019-03-20T03:39:37.334Z,100702.71
2019-03-20T03:42:03.923Z,100708.34
2019-03-20T03:44:30.514Z,100708.79
2019-03-20T03:46:57.131Z,100711.39
2019-03-20T03:49:23.699Z,100716.20
2019-03-20T03:51:50.292Z,100710.12
2019-03-20T03:54:16.862Z,100713.59
2019-03-20T03:56:43.473Z,100719.23
2019-03-20T03:59:10.050Z,100716.62
2019-03-20T04:01:36.652Z,100716.20
2019-03-20T04:04:03.227Z,100722.27
2019-03-20T04:06:35.536Z,100720.09
2019-03-20T04:08:58.094Z,100721.40
2019-03-20T04:11:24.674Z,100724.87
2019-03-20T04:13:51.254Z,100719.27
2019-03-20T04:16:17.819Z,100719.27
2019-03-20T04:18:44.402Z,100724.47
2019-03-20T04:21:10.986Z,100720.99
2019-03-20T04:23:37.561Z,100720.12
2019-03-20T04:26:04.139Z,100720.55
2019-03-20T04:28:30.770Z,100724.45
2019-03-20T04:30:57.369Z,100730.09
2019-03-20T04:33:23.949Z,100729.25
2019-03-20T04:35:50.530Z,100734.45
2019-03-20T04:38:17.208Z,100742.26
2019-03-20T04:40:43.795Z,100743.13
2019-03-20T04:43:10.371Z,100740.52
2019-03-20T04:45:36.953Z,100744.42
2019-03-20T04:48:03.529Z,100746.16
2019-03-20T04:50:30.108Z,100746.16
2019-03-20T04:52:56.672Z,100753.52
2019-03-20T04:55:23.239Z,100760.46
2019-03-20T04:57:49.822Z,100759.16
2019-03-20T05:00:16.439Z,100768.70
2019-03-20T05:02:43.052Z,100766.53
2019-03-20T05:05:09.615Z,100761.33
2019-03-20T05:07:36.231Z,100775.20
2019-03-20T05:10:02.807Z,100772.17
2019-03-20T05:12:29.398Z,100780.84
2019-03-20T05:14:55.970Z,100779.55
2019-03-20T05:17:22.572Z,100784.33
2019-03-20T05:19:49.148Z,100786.47
2019-03-20T05:22:15.755Z,100788.20
2019-03-20T05:24:42.328Z,100783.45
2019-03-20T05:27:08.905Z,100791.70
2019-03-20T05:29:35.501Z,100790.37
2019-03-20T05:32:02.133Z,100792.98
2019-03-20T05:34:28.706Z,100803.83
2019-03-20T05:36:55.278Z,100806.44
2019-03-20T05:39:21.870Z,100801.66
2019-03-20T05:41:48.444Z,100804.70
2019-03-20T05:44:15.021Z,100804.24
2019-03-20T05:46:41.589Z,100808.59
2019-03-20T05:49:08.166Z,100808.16
2019-03-20T05:51:34.756Z,100812.93
2019-03-20T05:54:01.318Z,100813.37
2019-03-20T05:56:27.888Z,100825.05
2019-03-20T05:58:54.468Z,100824.63
2019-03-20T06:01:21.061Z,100829.84
2019-03-20T06:03:47.636Z,100832.41
2019-03-20T06:06:14.220Z,100837.19
2019-03-20T06:08:40.804Z,100840.66
2019-03-20T06:11:07.492Z,100840.23
2019-03-20T06:13:34.061Z,100847.14
2019-03-20T06:16:00.634Z,100848.02
2019-03-20T06:18:27.255Z,100845.84
2019-03-20T06:20:53.836Z,100850.62
2019-03-20T06:23:20.461Z,100859.27
2019-03-20T06:25:47.031Z,100855.35
2019-03-20T06:28:13.646Z,100853.58
2019-03-20T06:30:40.229Z,100861.81
2019-03-20T06:33:07.096Z,100856.99
2019-03-20T06:35:33.714Z,100861.32
2019-03-20T06:38:00.326Z,100864.75
2019-03-20T06:40:26.892Z,100859.96
2019-03-20T06:42:55.284Z,100869.03
2019-03-20T06:45:21.791Z,100865.53
2019-03-20T06:47:48.396Z,100868.95
2019-03-20T06:50:14.965Z,100876.75
2019-03-20T06:52:41.576Z,100871.89
2019-03-20T06:55:08.154Z,100874.91
2019-03-20T06:57:34.739Z,100880.48
2019-03-20T07:00:01.322Z,100883.88
2019-03-20T07:02:27.888Z,100879.90
2019-03-20T07:04:54.549Z,100879.36
2019-03-20T07:07:21.118Z,100886.20
2019-03-20T07:09:47.713Z,100880.89
2019-03-20T07:12:14.286Z,100883.86
2019-03-20T07:14:40.861Z,100885.05
2019-03-20T07:17:07.448Z,100890.55
2019-03-20T07:19:34.155Z,100892.59
2019-03-20T07:22:00.728Z,100896.80
2019-03-20T07:24:27.324Z,100895.36
2019-03-20T07:26:53.899Z,100896.91
2019-03-20T07:29:20.496Z,100897.58
2019-03-20T07:31:47.070Z,100895.66
2019-03-20T07:34:13.719Z,100893.75
2019-03-20T07:36:40.313Z,100900.96
2019-03-20T07:39:06.895Z,100898.55
2019-03-20T07:41:33.469Z,100896.14
2019-03-20T07:44:00.068Z,100904.64
2019-03-20T07:46:26.645Z,100904.83
2019-03-20T07:48:53.246Z,100905.01
2019-03-20T07:51:19.828Z,100902.19
2019-03-20T07:53:46.469Z,100903.71
2019-03-20T07:56:13.085Z,100907.46
2019-03-20T07:58:39.674Z,100902.45
2019-03-20T08:01:06.250Z,100902.17
2019-03-20T08:03:32.863Z,100901.89
2019-03-20T08:05:59.438Z,100901.15
2019-03-20T08:08:26.059Z,100907.77
2019-03-20T08:10:52.631Z,100899.97
2019-03-20T08:13:19.252Z,100904.91
2019-03-20T08:15:45.840Z,100903.75
2019-03-20T08:18:12.411Z,100901.30
2019-03-20T08:20:38.981Z,100897.95
2019-03-20T08:23:05.551Z,100902.34
2019-03-20T08:25:32.135Z,100900.11
2019-03-20T08:27:58.716Z,100900.53
2019-03-20T08:30:25.286Z,100899.59
2019-03-20T08:32:51.865Z,100898.17
2019-03-20T08:35:18.492Z,100900.28
2019-03-20T08:37:45.065Z,100905.11
2019-03-20T08:40:11.645Z,100902.14
2019-03-20T08:42:38.217Z,100904.52
2019-03-20T08:45:04.802Z,100906.81
2019-03-20T08:47:31.380Z,100908.55
2019-03-20T08:49:57.959Z,100909.24
2019-03-20T08:52:24.536Z,100909.23
2019-03-20T08:54:51.118Z,100907.48
2019-03-20T08:57:17.690Z,100912.79
2019-03-20T08:59:44.277Z,100916.22
2019-03-20T09:02:10.867Z,100911.86
2019-03-20T09:04:37.426Z,100911.13
2019-03-20T09:07:04.004Z,100912.32
2019-03-20T09:09:30.582Z,100916.06
2019-03-20T09:11:57.165Z,100921.64
2019-03-20T09:14:23.744Z,100916.23
2019-03-20T09:16:50.319Z,100915.11
2019-03-20T09:19:16.907Z,100922.30
2019-03-20T09:21:43.489Z,100919.10
2019-03-20T09:24:10.062Z,100921.53
2019-03-20T09:26:36.638Z,100922.70
2019-03-20T09:29:03.238Z,100918.44
2019-03-20T09:31:29.822Z,100920.58
2019-03-20T09:33:56.484Z,100920.16
2019-03-20T09:36:23.188Z,100923.54
2019-03-20T09:38:49.805Z,100925.00
2019-03-20T09:41:16.380Z,100925.05
2019-03-20T09:43:43.018Z,100921.80
2019-03-20T09:46:09.595Z,100926.14
2019-03-20T09:48:36.170Z,100928.69
2019-03-20T09:51:02.778Z,100931.36
2019-03-20T09:53:29.368Z,100921.20
2019-03-20T09:55:55.976Z,100921.56
2019-03-20T09:58:22.558Z,100930.21
2019-03-20T10:00:49.167Z,100930.56
2019-03-20T10:03:15.751Z,100935.11
2019-03-20T10:05:42.358Z,100932.77
2019-03-20T10:08:09.006Z,100935.11
2019-03-20T10:10:35.661Z,100929.01
2019-03-20T10:13:02.338Z,100927.28
2019-03-20T10:15:28.931Z,100933.91
2019-03-20T10:17:55.513Z,100934.35
2019-03-20T10:20:22.116Z,100936.32
2019-03-20T10:22:48.693Z,100936.23
2019-03-20T10:25:15.302Z,100937.95
2019-03-20T10:27:41.884Z,100934.50
2019-03-20T10:30:08.516Z,100943.09
2019-03-20T10:32:35.088Z,100935.90
2019-03-20T10:35:01.699Z,100946.35
2019-03-20T10:37:28.270Z,100941.97
2019-03-20T10:39:54.871Z,100943.86
2019-03-20T10:42:21.447Z,100947.83
2019-03-20T10:44:48.068Z,100941.97
2019-03-20T10:47:14.643Z,100942.70
2019-03-20T10:49:41.256Z,100948.77
2019-03-20T10:52:07.849Z,100943.54
2019-03-20T10:54:34.465Z,100947.33
2019-03-20T10:57:01.131Z,100944.81
2019-03-20T10:59:27.736Z,100943.33
2019-03-20T11:01:54.318Z,100938.36
2019-03-20T11:04:20.926Z,100940.47
2019-03-20T11:06:47.502Z,100939.11
2019-03-20T11:09:18.580Z,100937.71
2019-03-20T11:11:42.395Z,100938.80
2019-03-20T11:14:08.971Z,100939.19
2019-03-20T11:16:35.565Z,100934.63
2019-03-20T11:19:02.220Z,100934.60
2019-03-20T11:21:28.799Z,100927.59
2019-03-20T11:23:55.392Z,100939.98
2019-03-20T11:26:21.972Z,100943.00
2019-03-20T11:28:48.543Z,100930.33
2019-03-20T11:31:15.134Z,100927.71
2019-03-20T11:33:41.701Z,100927.80
2019-03-20T11:36:08.277Z,100922.75
2019-03-20T11:38:34.930Z,100925.58
2019-03-20T11:41:01.519Z,100924.45
2019-03-20T11:43:28.092Z,100915.77
2019-03-20T11:45:54.687Z,100919.11
2019-03-20T11:48:21.242Z,100910.36
2019-03-20T11:50:47.863Z,100904.27
2019-03-20T11:53:14.442Z,100907.36
2019-03-20T11:55:41.017Z,100900.85
2019-03-20T11:58:09.842Z,100893.03
2019-03-20T12:00:36.443Z,100903.32
2019-03-20T12:03:03.015Z,100902.42
2019-03-20T12:05:29.606Z,100904.45
2019-03-20T12:07:56.186Z,100903.54
2019-03-20T12:10:22.779Z,100901.42
2019-03-20T12:12:49.358Z,100896.62
2019-03-20T12:15:15.983Z,100901.76
2019-03-20T12:17:42.583Z,100901.14
2019-03-20T12:20:09.200Z,100901.02
2019-03-20T12:22:35.814Z,100890.30
2019-03-20T12:25:02.441Z,100894.04
2019-03-20T12:27:29.025Z,100896.70
2019-03-20T12:29:55.613Z,100901.89
2019-03-20T12:32:22.189Z,100888.92
2019-03-20T12:34:48.764Z,100897.19
2019-03-20T12:37:15.344Z,100898.22
2019-03-20T12:39:52.634Z,100889.89
2019-03-20T12:42:10.215Z,100891.61
2019-03-20T12:44:36.789Z,100895.03
2019-03-20T12:47:03.372Z,100890.48
2019-03-20T12:49:29.956Z,100885.05
2019-03-20T12:51:56.583Z,100894.29
2019-03-20T12:54:23.208Z,100890.30
2019-03-20T12:56:49.784Z,100889.38
2019-03-20T12:59:16.366Z,100887.20
2019-03-20T13:01:42.937Z,100890.83
2019-03-20T13:04:09.525Z,100887.19
2019-03-20T13:06:36.089Z,100889.91
2019-03-20T13:09:03.779Z,100895.46
2019-03-20T13:11:30.496Z,100890.30
2019-03-20T13:13:57.086Z,100882.12
2019-03-20T13:16:23.663Z,100877.87
2019-03-20T13:18:50.251Z,100883.60
2019-03-20T13:21:16.822Z,100881.49
2019-03-20T13:23:43.404Z,100880.03
2019-03-20T13:26:09.977Z,100882.81
2019-03-20T13:28:36.562Z,100878.37
2019-03-20T13:31:03.155Z,100878.02
2019-03-20T13:33:29.771Z,100881.61
2019-03-20T13:35:56.391Z,100880.77
2019-03-20T13:38:22.965Z,100870.39
2019-03-20T13:40:49.541Z,100874.47
2019-03-20T13:43:16.148Z,100870.11
2019-03-20T13:45:42.714Z,100871.55
2019-03-20T13:48:09.314Z,100872.88
2019-03-20T13:50:35.935Z,100869.03
2019-03-20T13:53:02.508Z,100864.27
2019-03-20T13:55:29.123Z,100860.39
2019-03-20T13:57:55.706Z,100859.38
2019-03-20T14:00:22.310Z,100861.66
2019-03-20T14:02:48.924Z,100861.64
2019-03-20T14:05:15.505Z,100858.64
2019-03-20T14:07:42.130Z,100858.75
2019-03-20T14:10:08.709Z,100856.50
2019-03-20T14:12:35.311Z,100856.63
2019-03-20T14:15:01.881Z,100857.53
2019-03-20T14:17:28.473Z,100856.95
2019-03-20T14:19:55.051Z,100856.16
2019-03-20T14:22:21.676Z,100852.56
2019-03-20T14:24:48.256Z,100858.39
2019-03-20T14:27:14.847Z,100858.17
2019-03-20T14:29:41.420Z,100860.40
2019-03-20T14:32:08.006Z,100850.09
2019-03-20T14:34:34.582Z,100850.37
2019-03-20T14:37:01.180Z,100855.05
2019-03-20T14:39:27.749Z,100846.38
2019-03-20T14:41:54.340Z,100850.81
2019-03-20T14:44:20.903Z,100854.66
2019-03-20T14:46:47.499Z,100856.45
2019-03-20T14:49:14.070Z,100853.73
2019-03-20T14:51:40.694Z,100861.73
2019-03-20T14:54:07.337Z,100862.84
2019-03-20T14:56:33.950Z,100857.42
2019-03-20T14:59:00.530Z,100857.47
2019-03-20T15:01:27.190Z,100848.40
2019-03-20T15:03:53.759Z,100850.47
2019-03-20T15:06:20.383Z,100844.39
2019-03-20T15:08:46.958Z,100847.52
2019-03-20T15:11:13.559Z,100846.30
2019-03-20T15:13:40.143Z,100846.61
2019-03-20T15:16:06.743Z,100848.27
2019-03-20T15:18:33.326Z,100849.36
2019-03-20T15:20:59.896Z,100848.38
2019-03-20T15:23:26.478Z,100847.27
2019-03-20T15:25:53.112Z,100846.63
2019-03-20T15:28:19.685Z,100844.69
2019-03-20T15:30:46.253Z,100846.86
2019-03-20T15:33:12.830Z,100841.72
2019-03-20T15:38:23.810Z,100843.50
2019-03-20T15:40:56.196Z,100840.50
2019-03-20T15:43:18.707Z,100849.82
2019-03-20T15:45:45.284Z,100847.02
2019-03-20T15:48:11.879Z,100848.59
2019-03-20T15:50:38.477Z,100850.71
2019-03-20T15:53:05.088Z,100846.84
2019-03-20T15:55:31.666Z,100846.28
2019-03-20T15:57:58.292Z,100856.47
2019-03-20T16:00:24.857Z,100858.75
2019-03-20T16:02:51.461Z,100851.54
2019-03-20T16:05:18.035Z,100853.72
2019-03-20T16:07:44.652Z,100852.36
2019-03-20T16:10:11.229Z,100858.39
2019-03-20T16:12:37.842Z,100862.18
2019-03-20T16:15:04.471Z,100864.09
2019-03-20T16:17:31.066Z,100871.34
2019-03-20T16:19:57.642Z,100871.59
2019-03-20T16:22:24.251Z,100869.72
2019-03-20T16:24:50.822Z,100870.09
2019-03-20T16:27:17.424Z,100867.81
2019-03-20T16:29:43.997Z,100864.23
2019-03-20T16:32:11.730Z,100865.14
2019-03-20T16:34:38.349Z,100863.69
2019-03-20T16:37:05.067Z,100860.11
2019-03-20T16:39:31.645Z,100863.92
2019-03-20T16:41:58.259Z,100871.25
2019-03-20T16:44:24.840Z,100873.73
2019-03-20T16:46:51.452Z,100871.70
2019-03-20T16:49:18.032Z,100886.73
2019-03-20T16:51:44.633Z,100886.81
2019-03-20T16:54:11.381Z,100888.72
2019-03-20T16:56:38.000Z,100881.42
2019-03-20T16:59:04.601Z,100881.13
2019-03-20T17:01:31.242Z,100882.16
2019-03-20T17:03:57.816Z,100887.61
2019-03-20T17:06:24.405Z,100892.29
2019-03-20T17:08:50.983Z,100889.38
2019-03-20T17:11:27.448Z,100889.98
2019-03-20T17:13:45.869Z,100893.14
2019-03-20T17:16:12.462Z,100897.87
2019-03-20T17:18:39.031Z,100906.09
2019-03-20T17:21:05.598Z,100909.00
2019-03-20T17:23:32.185Z,100910.09
2019-03-20T17:25:58.766Z,100906.75
2019-03-20T17:28:25.344Z,100907.36
2019-03-20T17:30:53.064Z,100919.88
2019-03-20T17:33:19.640Z,100914.84
2019-03-20T17:35:46.220Z,100915.23
2019-03-20T17:38:12.798Z,100927.80
2019-03-20T17:40:39.383Z,100922.44
2019-03-20T17:43:05.966Z,100919.17
2019-03-20T17:45:32.534Z,100914.11
2019-03-20T17:47:59.106Z,100920.85
2019-03-20T17:50:25.693Z,100921.52
2019-03-20T17:52:52.299Z,100919.11
2019-03-20T17:55:18.873Z,100920.69
2019-03-20T17:57:45.637Z,100920.45
2019-03-20T18:00:12.211Z,100924.19
2019-03-20T18:02:40.237Z,100916.49
2019-03-20T18:05:06.814Z,100920.66
2019-03-20T18:07:35.312Z,100925.73
2019-03-20T18:10:01.730Z,100932.48
2019-03-20T18:12:29.244Z,100940.27
2019-03-20T18:14:55.857Z,100954.50
2019-03-20T18:17:22.460Z,100954.78
2019-03-20T18:19:49.045Z,100947.94
2019-03-20T18:22:15.650Z,100952.58
2019-03-20T18:24:42.226Z,100953.62
2019-03-20T18:27:08.809Z,100948.14
2019-03-20T18:29:35.372Z,100951.00
2019-03-20T18:32:01.954Z,100952.53
2019-03-20T18:34:28.519Z,100950.53
2019-03-20T18:36:55.106Z,100961.69
2019-03-20T18:39:21.671Z,100962.80
2019-03-20T18:41:57.354Z,100962.15
2019-03-20T18:44:16.562Z,100960.55
2019-03-20T18:46:43.135Z,100965.09
2019-03-20T18:49:09.728Z,100972.28
2019-03-20T18:51:36.321Z,100967.63
2019-03-20T18:54:02.892Z,100970.42
2019-03-20T18:56:29.540Z,100967.55
2019-03-20T18:58:56.114Z,100968.98
2019-03-20T19:01:22.693Z,100969.11
2019-03-20T19:03:49.347Z,100969.69
2019-03-20T19:06:15.918Z,100972.87
2019-03-20T19:08:42.599Z,100969.98
2019-03-20T19:11:09.326Z,100974.05
2019-03-20T19:13:36.076Z,100974.16
2019-03-20T19:16:02.651Z,100984.41
2019-03-20T19:18:29.239Z,100981.89
2019-03-20T19:20:55.808Z,100975.91
2019-03-20T19:23:22.387Z,100978.67
2019-03-20T19:25:48.968Z,100975.35
2019-03-20T19:28:16.466Z,100971.12
2019-03-20T19:30:43.037Z,100969.50
2019-03-20T19:33:09.619Z,100973.99
2019-03-20T19:35:36.240Z,100967.20
2019-03-20T19:38:02.823Z,100972.09
2019-03-20T19:40:29.410Z,100970.52
2019-03-20T19:42:56.053Z,100969.77
2019-03-20T19:45:22.641Z,100969.86
2019-03-20T19:47:49.210Z,100973.10
2019-03-20T19:50:15.803Z,100978.44
2019-03-20T19:52:42.448Z,100976.82
2019-03-20T19:55:09.166Z,100987.42
2019-03-20T19:57:35.818Z,100994.06
2019-03-20T20:00:02.398Z,100999.81
2019-03-20T20:02:28.988Z,100999.85
2019-03-20T20:04:55.571Z,101006.89
2019-03-20T20:07:22.143Z,101004.34
2019-03-20T20:09:48.793Z,101007.45
2019-03-20T20:12:15.374Z,100999.17
2019-03-20T20:14:41.967Z,101000.55
2019-03-20T20:17:08.556Z,101007.98
2019-03-20T20:19:35.138Z,101008.94
2019-03-20T20:22:01.713Z,101007.66
2019-03-20T20:24:28.315Z,101009.89
2019-03-20T20:26:54.899Z,101003.37
2019-03-20T20:29:21.678Z,101011.72
2019-03-20T20:31:48.244Z,101015.28
2019-03-20T20:34:14.824Z,101017.52
2019-03-20T20:36:41.391Z,101015.38
2019-03-20T20:39:08.016Z,101009.34
2019-03-20T20:41:34.595Z,101012.00
2019-03-20T20:44:01.167Z,101009.42
2019-03-20T20:46:27.745Z,101017.75
2019-03-20T20:48:54.482Z,101020.83
2019-03-20T20:51:21.122Z,101019.16
2019-03-20T20:53:47.729Z,101023.98
2019-03-20T20:56:14.313Z,101021.39
2019-03-20T20:58:40.908Z,101016.59
2019-03-20T21:01:07.480Z,101015.75
2019-03-20T21:03:34.116Z,101016.25
2019-03-20T21:06:00.695Z,101020.64
2019-03-20T21:08:28.598Z,101022.83
2019-03-20T21:10:55.173Z,101017.63
2019-03-20T21:13:21.792Z,101014.58
2019-03-20T21:15:48.363Z,101023.75
2019-03-20T21:18:15.033Z,101021.16
2019-03-20T21:20:41.635Z,101027.72
2019-03-20T21:23:08.196Z,101026.47
2019-03-20T21:25:34.830Z,101026.05
2019-03-20T21:28:01.399Z,101023.89
2019-03-20T21:30:28.040Z,101032.63
2019-03-20T21:32:54.617Z,101025.23
2019-03-20T21:35:21.220Z,101016.10
2019-03-20T21:37:47.794Z,101020.52
2019-03-20T21:40:14.389Z,101010.95
2019-03-20T21:42:40.967Z,101003.55
2019-03-20T21:45:07.628Z,101003.15
2019-03-20T21:47:34.285Z,100997.12
2019-03-20T21:50:00.871Z,101003.23
2019-03-20T21:52:27.463Z,100995.41
2019-03-20T21:54:54.019Z,101001.97
2019-03-20T21:57:20.654Z,101006.79
2019-03-20T21:59:47.208Z,101015.09
2019-03-20T22:02:13.808Z,101022.06
2019-03-20T22:04:40.384Z,101025.16
2019-03-20T22:07:06.963Z,101021.25
2019-03-20T22:09:33.596Z,101015.59
2019-03-20T22:12:00.287Z,101009.05
2019-03-20T22:14:26.880Z,101012.97
2019-03-20T22:16:53.458Z,101022.14
2019-03-20T22:19:20.049Z,101012.98
2019-03-20T22:21:46.633Z,101019.52
2019-03-20T22:24:13.227Z,101020.39
2019-03-20T22:26:39.804Z,101015.16
2019-03-20T22:29:06.461Z,101011.25
2019-03-20T22:31:33.035Z,101019.97
2019-03-20T22:33:59.607Z,101032.61
2019-03-20T22:36:26.228Z,101042.22
2019-03-20T22:38:52.810Z,101033.07
2019-03-20T22:41:19.411Z,101030.45
2019-03-20T22:43:45.990Z,101033.08
2019-03-20T22:46:12.613Z,101039.63
2019-03-20T22:48:39.176Z,101037.49
2019-03-20T22:51:05.797Z,101037.94
2019-03-20T22:53:32.372Z,101033.16
2019-03-20T22:55:59.064Z,101032.30
2019-03-20T22:58:25.642Z,101030.13
2019-03-20T23:00:52.257Z,101027.09
2019-03-20T23:03:18.838Z,101027.10
2019-03-20T23:05:45.452Z,101027.98
2019-03-20T23:08:12.034Z,101028.42
2019-03-20T23:10:38.601Z,101021.94
2019-03-20T23:13:05.186Z,101022.39
2019-03-20T23:15:31.757Z,101030.67
2019-03-20T23:17:58.376Z,101027.63
2019-03-20T23:20:24.938Z,101038.97
2019-03-20T23:22:52.059Z,101033.31
2019-03-20T23:25:18.628Z,101035.93
2019-03-20T23:27:45.218Z,101035.06
2019-03-20T23:30:11.789Z,101038.59
2019-03-20T23:32:38.389Z,101052.10
2019-03-20T23:35:04.966Z,101044.27
2019-03-20T23:37:32.641Z,101033.37
2019-03-20T23:39:59.210Z,101035.12
2019-03-20T23:42:25.803Z,101044.72
2019-03-20T23:44:52.372Z,101045.59
2019-03-20T23:47:18.975Z,101050.39
2019-03-20T23:49:45.549Z,101047.34
2019-03-20T23:52:12.137Z,101046.05
2019-03-20T23:54:38.713Z,101049.10
2019-03-20T23:57:05.301Z,101044.79
2019-03-20T23:59:31.877Z,101056.55
